Tunis, Tunisia
Current Conditions -  °F | °C
As of 7:00 PM on Monday 20 Oct 2014 (Local Time) from DTTA Reporting Station
Few Clouds Few Clouds  
Wind Chill: 21°   Ceiling: Unl
Heat Index: 21°   Visibility: 6mi
Dew Point: 18°   Wind: 0mph
Humidity: 83%   Direction: NA
Pressure: 30.12"   Gusts: NA
Location:  36.84°N, 10.22°E
Report Text: DTTA 201800Z 00000KT 9999 FEW030 21/18 Q1020 NOSIG
Loading
Personal Weather Stations






























Interactive Weather Map New forecast layout! Learn more

10-Day Weather Forecast

Advertisements
Track Severe Weather on mobile